Погода Большая Полянана 2 недели

Ростовская область, Россия

20 мая-02 июня
  • 20мая
    Сегодня
    +9°
    +23°
    Практически безоблачно
    ВремяПогодаТемператураВлажностьДавлениеВетер, м/сВероятность осадков
    00:00Ясно и безоблачно+13°C76 %756 мм0.5 м/с2 %
    03:00Ясно и безоблачно+10°C83 %756 мм1.2 м/с2 %
    06:00Ясно и безоблачно+12°C80 %757 мм1.5 м/с2 %
    09:00Ясно и безоблачно+19°C50 %758 мм1.4 м/с2 %
    12:00Практически безоблачно+22°C41 %758 мм1.5 м/с2 %
    15:00Практически безоблачно+23°C37 %757 мм1.9 м/с2 %
    18:00Практически безоблачно+22°C35 %757 мм1.0 м/с2 %
    21:00Ясно и безоблачно+16°C54 %758 мм1.6 м/с2 %
  • 21мая
    Вторник
    +9°
    +26°
    Практически безоблачно
    ВремяПогодаТемператураВлажностьДавлениеВетер, м/сВероятность осадков
    00:00Ясно и безоблачно+12°C64 %758 мм1.6 м/с2 %
    03:00Ясно и безоблачно+10°C62 %758 мм1.8 м/с2 %
    06:00Ясно и безоблачно+13°C57 %759 мм1.5 м/с2 %
    09:00Ясно и безоблачно+21°C40 %760 мм0.9 м/с2 %
    12:00Ясно и безоблачно+25°C26 %760 мм1.5 м/с2 %
    15:00Практически безоблачно+26°C23 %759 мм3.7 м/с2 %
    18:00Ясно и безоблачно+24°C27 %758 мм1.9 м/с2 %
    21:00Ясно и безоблачно+16°C45 %759 мм2.5 м/с2 %
  • 22мая
    Среда
    +10°
    +27°
    Ясно и безоблачно
    ВремяПогодаТемператураВлажностьДавлениеВетер, м/сВероятность осадков
    00:00Ясно и безоблачно+13°C50 %759 мм2.6 м/с2 %
    03:00Ясно и безоблачно+11°C57 %759 мм2.3 м/с2 %
    06:00Ясно и безоблачно+13°C54 %759 мм2.0 м/с2 %
    09:00Практически безоблачно+23°C33 %759 мм2.2 м/с2 %
    12:00Практически безоблачно+26°C24 %759 мм4.4 м/с2 %
    15:00Ясно и безоблачно+27°C23 %758 мм3.9 м/с1 %
    18:00Ясно и безоблачно+25°C26 %757 мм2.6 м/с2 %
    21:00Ясно и безоблачно+18°C40 %757 мм2.4 м/с2 %
  • 23мая
    Четверг
    +13°
    +28°
    Ясно и безоблачно
    ВремяПогодаТемператураВлажностьДавлениеВетер, м/сВероятность осадков
    00:00Ясно и безоблачно+15°C41 %757 мм2.8 м/с2 %
    03:00Ясно и безоблачно+11°C58 %757 мм2.3 м/с2 %
    06:00Ясно и безоблачно+13°C58 %757 мм1.8 м/с2 %
    09:00Ясно и безоблачно+22°C36 %758 мм2.6 м/с2 %
    12:00Ясно и безоблачно+26°C23 %757 мм4.5 м/с2 %
    15:00Ясно и безоблачно+27°C21 %756 мм3.8 м/с4 %
    18:00Ясно и безоблачно+25°C24 %756 мм3.2 м/с3 %
    21:00Практически безоблачно+20°C37 %757 мм6.3 м/с2 %
  • 24мая
    Пятница
    +9°
    +25°
    Ясно и безоблачно
    ВремяПогодаТемператураВлажностьДавлениеВетер, м/сВероятность осадков
    00:00Ясно и безоблачно+17°C56 %758 мм5.4 м/с2 %
    03:00Ясно и безоблачно+14°C71 %758 мм6.5 м/с2 %
    06:00Практически безоблачно+14°C54 %760 мм6.8 м/с2 %
    09:00Ясно и безоблачно+19°C39 %761 мм7.4 м/с2 %
    12:00Ясно и безоблачно+23°C31 %761 мм7.7 м/с3 %
    15:00Ясно и безоблачно+24°C26 %761 мм7.7 м/с5 %
    18:00Ясно и безоблачно+21°C20 %761 мм7.6 м/с2 %
    21:00Ясно и безоблачно+18°C23 %763 мм6.1 м/с2 %
Мы используем cookies
Соглашаюсь